Time;durP1;ratioP1;P1;durP2;ratioP2;P2;SDS_P1;SDS_P2;PMS_P1;PMS_P2;Temp;Humidity;BMP_temperature;BMP_pressure;BME280_temperature;BME280_humidity;BME280_pressure;Samples;Min_cycle;Max_cycle;Signal;HPM_P1;HPM_P2
2023/09/24 00:00:27;;;;;;;0.53;0.53;;;8.40;99.90;;;;;;5072557;28;20195;-59
2023/09/24 00:02:52;;;;;;;0.50;0.50;;;8.50;99.90;;;;;;5072641;28;20181;-59
2023/09/24 00:05:18;;;;;;;0.40;0.40;;;8.40;99.90;;;;;;5072512;28;20249;-58
2023/09/24 00:07:44;;;;;;;0.40;0.40;;;8.30;99.90;;;;;;5072208;28;20189;-59
2023/09/24 00:10:10;;;;;;;0.40;0.40;;;8.30;99.90;;;;;;5072396;28;20404;-57
2023/09/24 00:12:36;;;;;;;0.40;0.40;;;8.30;99.90;;;;;;5072414;28;20231;-59
2023/09/24 00:15:02;;;;;;;0.30;0.30;;;8.30;99.90;;;;;;5072289;28;20561;-59
2023/09/24 00:17:28;;;;;;;0.75;0.70;;;8.30;99.90;;;;;;5071934;28;20277;-58
2023/09/24 00:19:53;;;;;;;0.80;0.80;;;8.30;99.90;;;;;;5072439;28;20273;-59
2023/09/24 00:22:19;;;;;;;0.40;0.40;;;8.30;99.90;;;;;;5072230;28;20650;-59
2023/09/24 00:24:46;;;;;;;0.40;0.40;;;8.40;99.90;;;;;;5072272;28;20172;-59
2023/09/24 00:27:12;;;;;;;0.50;0.50;;;8.40;99.90;;;;;;5071673;28;20222;-58
2023/09/24 00:29:37;;;;;;;0.30;0.30;;;8.40;99.90;;;;;;5072055;28;20257;-59
2023/09/24 00:32:03;;;;;;;0.40;0.40;;;8.40;99.90;;;;;;5072042;28;20700;-59
2023/09/24 00:34:29;;;;;;;0.50;0.40;;;8.40;99.90;;;;;;5071987;28;20162;-58
2023/09/24 00:36:57;;;;;;;1.00;1.00;;;8.30;99.90;;;;;;5071722;28;20666;-58
2023/09/24 00:39:23;;;;;;;0.40;0.40;;;8.30;99.90;;;;;;5071841;28;20628;-59
2023/09/24 00:41:51;;;;;;;0.40;0.40;;;8.40;99.90;;;;;;5071803;28;20174;-59
2023/09/24 00:44:17;;;;;;;0.40;0.40;;;8.30;99.90;;;;;;5071914;28;20169;-59
2023/09/24 00:46:44;;;;;;;0.60;0.60;;;8.30;99.90;;;;;;5071465;28;20223;-59
2023/09/24 00:49:15;;;;;;;1.25;0.40;;;8.30;99.90;;;;;;5071783;28;20291;-57
2023/09/24 00:51:42;;;;;;;0.30;0.30;;;8.30;99.90;;;;;;5071793;28;20211;-59
2023/09/24 00:54:09;;;;;;;0.30;0.30;;;8.40;99.90;;;;;;5071678;28;20227;-59
2023/09/24 00:56:36;;;;;;;0.60;0.60;;;8.30;99.90;;;;;;5071360;28;20177;-58
2023/09/24 00:59:03;;;;;;;1.27;1.25;;;8.20;99.90;;;;;;5071442;28;20228;-58
2023/09/24 01:01:29;;;;;;;0.40;0.40;;;8.20;99.90;;;;;;5071741;28;20177;-59
2023/09/24 01:03:55;;;;;;;0.47;0.47;;;8.10;99.90;;;;;;5071595;28;20234;-57
2023/09/24 01:06:21;;;;;;;0.90;0.63;;;8.10;99.90;;;;;;5071190;28;20216;-58
2023/09/24 01:08:48;;;;;;;0.40;0.40;;;8.10;99.90;;;;;;5071442;28;20438;-58
2023/09/24 01:11:14;;;;;;;0.57;0.57;;;8.00;99.90;;;;;;5071453;28;20173;-59
2023/09/24 01:13:44;;;;;;;0.30;0.30;;;8.00;99.90;;;;;;5071665;28;20536;-59
2023/09/24 01:16:11;;;;;;;0.30;0.30;;;8.10;99.90;;;;;;5071103;28;20422;-59
2023/09/24 01:18:44;;;;;;;0.75;0.73;;;8.20;99.90;;;;;;5071413;28;20274;-59
2023/09/24 01:21:15;;;;;;;0.40;0.40;;;8.20;99.90;;;;;;5071489;28;20176;-59
2023/09/24 01:23:42;;;;;;;0.50;0.50;;;8.20;99.90;;;;;;5071287;28;20187;-59
2023/09/24 01:26:11;;;;;;;0.52;0.52;;;8.30;99.90;;;;;;5071096;28;20231;-58
2023/09/24 01:28:37;;;;;;;0.40;0.40;;;8.20;99.90;;;;;;5073522;28;20634;-59
2023/09/24 01:31:04;;;;;;;0.75;0.75;;;8.10;99.90;;;;;;5075594;28;20183;-59
2023/09/24 01:33:31;;;;;;;0.32;0.32;;;7.90;99.90;;;;;;5075519;28;20200;-58
2023/09/24 01:35:57;;;;;;;0.50;0.50;;;7.90;99.90;;;;;;5074988;28;20173;-59
2023/09/24 01:38:23;;;;;;;0.60;0.60;;;7.80;99.90;;;;;;5075094;28;20630;-58
2023/09/24 01:40:49;;;;;;;0.40;0.40;;;7.80;99.90;;;;;;5075378;28;20260;-59
2023/09/24 01:43:14;;;;;;;0.40;0.40;;;7.90;99.90;;;;;;5075397;28;20407;-58
2023/09/24 01:45:40;;;;;;;0.30;0.30;;;8.00;99.90;;;;;;5074969;28;20661;-59
2023/09/24 01:48:07;;;;;;;0.40;0.40;;;7.90;99.90;;;;;;5075154;28;20196;-59
2023/09/24 01:50:33;;;;;;;2.45;0.80;;;7.90;99.90;;;;;;5075180;28;20185;-59
2023/09/24 01:52:59;;;;;;;0.40;0.40;;;8.00;99.90;;;;;;5075261;28;20208;-59
2023/09/24 01:55:28;;;;;;;6.28;0.93;;;7.90;99.90;;;;;;5075094;28;20252;-58
2023/09/24 01:57:55;;;;;;;0.52;0.52;;;7.90;99.90;;;;;;5074899;28;20307;-58
2023/09/24 02:00:26;;;;;;;0.30;0.30;;;7.90;99.90;;;;;;5075256;28;20177;-60
2023/09/24 02:02:57;;;;;;;0.60;0.60;;;7.90;99.90;;;;;;5075198;28;20174;-61
2023/09/24 02:05:23;;;;;;;0.93;0.40;;;7.80;99.90;;;;;;5074977;28;20177;-60
2023/09/24 02:07:50;;;;;;;0.50;0.50;;;7.70;99.90;;;;;;5074674;28;20205;-60
2023/09/24 02:10:20;;;;;;;0.30;0.30;;;7.60;99.90;;;;;;5075170;28;20415;-60
2023/09/24 02:12:46;;;;;;;0.55;0.55;;;7.60;99.90;;;;;;5075286;28;20731;-60
2023/09/24 02:15:14;;;;;;;0.60;0.60;;;7.70;99.90;;;;;;5074933;28;20169;-61
2023/09/24 02:17:39;;;;;;;0.40;0.40;;;7.70;99.90;;;;;;5074676;28;20283;-60
2023/09/24 02:20:15;;;;;;;0.40;0.40;;;7.70;99.90;;;;;;5075099;28;20256;-60
2023/09/24 02:22:42;;;;;;;0.38;0.38;;;7.70;99.90;;;;;;5075032;28;20180;-60
2023/09/24 02:25:10;;;;;;;0.45;0.45;;;7.70;99.90;;;;;;5074481;28;20243;-60
2023/09/24 02:27:36;;;;;;;0.40;0.40;;;7.80;99.90;;;;;;5074471;28;20651;-61
2023/09/24 02:30:01;;;;;;;0.40;0.40;;;7.90;99.90;;;;;;5074902;28;20180;-61
2023/09/24 02:32:29;;;;;;;0.50;0.50;;;7.80;99.90;;;;;;5074518;28;20637;-61
2023/09/24 02:34:54;;;;;;;0.30;0.30;;;7.80;99.90;;;;;;5074581;28;20173;-60
2023/09/24 02:37:22;;;;;;;0.70;0.67;;;7.80;99.90;;;;;;5073941;28;20188;-60
2023/09/24 02:39:48;;;;;;;0.45;0.45;;;7.70;99.90;;;;;;5072851;28;20228;-60
2023/09/24 02:42:14;;;;;;;2.10;1.60;;;7.70;99.90;;;;;;5074209;28;20181;-60
2023/09/24 02:44:40;;;;;;;1.37;1.13;;;7.60;99.90;;;;;;5074155;28;20216;-60
2023/09/24 02:47:06;;;;;;;0.67;0.67;;;7.70;99.90;;;;;;5073872;28;20172;-61
2023/09/24 02:49:32;;;;;;;0.70;0.60;;;7.70;99.90;;;;;;5074659;28;20210;-60
2023/09/24 02:51:58;;;;;;;0.37;0.37;;;7.70;99.90;;;;;;5072903;28;20177;-60
2023/09/24 02:54:24;;;;;;;0.40;0.40;;;7.70;99.90;;;;;;5074266;28;20410;-60
2023/09/24 02:56:50;;;;;;;0.40;0.40;;;7.60;99.90;;;;;;5074049;28;20410;-60
2023/09/24 02:59:15;;;;;;;0.50;0.50;;;7.70;99.90;;;;;;5074177;28;20244;-60
2023/09/24 03:01:46;;;;;;;0.80;0.80;;;7.70;99.90;;;;;;5074223;28;20674;-60
2023/09/24 03:04:12;;;;;;;0.40;0.40;;;7.70;99.90;;;;;;5074476;28;20257;-60
2023/09/24 03:06:38;;;;;;;1.80;0.90;;;7.60;99.90;;;;;;5073886;28;20604;-58
2023/09/24 03:09:06;;;;;;;0.60;0.60;;;7.40;99.90;;;;;;5074473;28;20430;-61
2023/09/24 03:11:32;;;;;;;0.65;0.65;;;7.40;99.90;;;;;;5074320;28;20181;-60
2023/09/24 03:13:58;;;;;;;0.63;0.63;;;7.40;99.90;;;;;;5074472;28;20184;-60
2023/09/24 03:16:26;;;;;;;0.40;0.40;;;7.50;99.90;;;;;;5073988;28;20704;-60
2023/09/24 03:18:51;;;;;;;0.50;0.50;;;7.70;99.90;;;;;;5073649;28;20592;-60
2023/09/24 03:21:17;;;;;;;0.40;0.40;;;7.70;99.90;;;;;;5073575;28;20175;-61
2023/09/24 03:23:43;;;;;;;0.80;0.73;;;7.70;99.90;;;;;;5074498;28;20689;-61
2023/09/24 03:26:14;;;;;;;0.60;0.60;;;7.70;99.90;;;;;;5074009;28;20169;-60
2023/09/24 03:28:39;;;;;;;0.40;0.40;;;7.70;99.90;;;;;;5074090;28;20261;-61
2023/09/24 03:31:12;;;;;;;0.60;0.60;;;7.60;99.90;;;;;;5073623;28;20644;-60
2023/09/24 03:33:38;;;;;;;0.50;0.50;;;7.50;99.90;;;;;;5073622;28;20173;-60
2023/09/24 03:36:05;;;;;;;0.70;0.63;;;7.50;99.90;;;;;;5073000;28;20256;-61
2023/09/24 03:38:31;;;;;;;0.43;0.43;;;7.60;99.90;;;;;;5073096;28;20223;-60
2023/09/24 03:40:57;;;;;;;0.50;0.50;;;7.50;99.90;;;;;;5073004;28;20186;-60
2023/09/24 03:43:23;;;;;;;0.50;0.50;;;7.50;99.90;;;;;;5073131;28;20169;-60
2023/09/24 03:45:48;;;;;;;0.30;0.30;;;7.60;99.90;;;;;;5073097;28;20175;-60
2023/09/24 03:48:14;;;;;;;0.63;0.63;;;7.60;99.90;;;;;;5073717;28;20743;-59
2023/09/24 03:50:40;;;;;;;0.70;0.50;;;7.60;99.90;;;;;;5073189;28;20183;-61
2023/09/24 03:53:05;;;;;;;0.40;0.40;;;7.60;99.90;;;;;;5073221;28;20184;-60
2023/09/24 03:55:31;;;;;;;1.27;0.70;;;7.60;99.90;;;;;;5072413;28;20262;-61
2023/09/24 03:57:57;;;;;;;0.40;0.40;;;7.50;99.90;;;;;;5072714;28;20216;-58
2023/09/24 04:00:25;;;;;;;0.43;0.43;;;7.50;99.90;;;;;;5073007;28;20212;-60
2023/09/24 04:02:51;;;;;;;0.70;0.70;;;7.50;99.90;;;;;;5072893;28;20162;-58
2023/09/24 04:05:19;;;;;;;0.40;0.40;;;7.60;99.90;;;;;;5073186;28;20746;-61
2023/09/24 04:07:52;;;;;;;0.45;0.45;;;7.60;99.90;;;;;;5072507;28;20427;-61
2023/09/24 04:10:20;;;;;;;0.57;0.50;;;7.60;99.90;;;;;;5072436;28;20207;-61
2023/09/24 04:12:46;;;;;;;0.52;0.52;;;7.60;99.90;;;;;;5072621;28;20158;-61
2023/09/24 04:15:13;;;;;;;1.55;1.45;;;7.60;99.90;;;;;;5072433;28;20174;-62
2023/09/24 04:17:41;;;;;;;0.40;0.40;;;7.60;99.90;;;;;;5071721;28;20232;-60
2023/09/24 04:20:08;;;;;;;0.85;0.52;;;7.60;99.90;;;;;;5071903;28;20177;-60
2023/09/24 04:22:34;;;;;;;0.38;0.38;;;7.50;99.90;;;;;;5072635;28;20173;-60
2023/09/24 04:24:59;;;;;;;0.52;0.52;;;7.40;99.90;;;;;;5072722;28;20196;-60
2023/09/24 04:27:26;;;;;;;0.40;0.40;;;7.50;99.90;;;;;;5072452;28;20633;-59
2023/09/24 04:29:52;;;;;;;0.55;0.55;;;7.50;99.90;;;;;;5072741;28;20718;-60
2023/09/24 04:32:17;;;;;;;0.40;0.40;;;7.60;99.90;;;;;;5072692;28;20268;-60
2023/09/24 04:34:46;;;;;;;0.40;0.40;;;7.60;99.90;;;;;;5072597;28;20645;-60
2023/09/24 04:37:12;;;;;;;0.40;0.40;;;7.60;99.90;;;;;;5071703;28;20535;-60
2023/09/24 04:39:38;;;;;;;0.50;0.50;;;7.70;99.90;;;;;;5072130;28;20212;-60
2023/09/24 04:42:06;;;;;;;0.40;0.40;;;7.70;99.90;;;;;;5072097;28;20168;-62
2023/09/24 04:44:31;;;;;;;0.40;0.40;;;7.70;99.90;;;;;;5072024;28;20545;-62
2023/09/24 04:46:57;;;;;;;0.60;0.60;;;7.70;99.90;;;;;;5071236;28;20264;-62
2023/09/24 04:49:23;;;;;;;0.43;0.43;;;7.60;99.90;;;;;;5071193;28;20326;-61
2023/09/24 04:51:50;;;;;;;0.40;0.40;;;7.60;99.90;;;;;;5071613;28;20296;-62
2023/09/24 04:54:16;;;;;;;0.30;0.30;;;7.60;99.90;;;;;;5071614;28;20177;-62
2023/09/24 04:56:42;;;;;;;0.30;0.30;;;7.60;99.90;;;;;;5071446;28;20204;-61
2023/09/24 04:59:07;;;;;;;0.37;0.37;;;7.50;99.90;;;;;;5071477;28;20474;-62
2023/09/24 05:01:33;;;;;;;0.50;0.50;;;7.40;99.90;;;;;;5071602;28;20180;-61
2023/09/24 05:03:59;;;;;;;0.40;0.40;;;7.40;99.90;;;;;;5070874;28;20170;-61
2023/09/24 05:06:25;;;;;;;1.95;0.50;;;7.40;99.90;;;;;;5053229;28;20181;-61
2023/09/24 05:08:52;;;;;;;0.47;0.47;;;7.60;99.90;;;;;;5071614;28;20201;-60
2023/09/24 05:11:18;;;;;;;0.40;0.40;;;7.60;99.90;;;;;;5071773;28;20180;-62
2023/09/24 05:13:44;;;;;;;0.87;0.63;;;7.60;99.90;;;;;;5071550;28;20177;-62
2023/09/24 05:16:09;;;;;;;0.67;0.67;;;7.50;99.90;;;;;;5071334;28;20552;-61
2023/09/24 05:18:35;;;;;;;0.50;0.50;;;7.50;99.90;;;;;;5071347;28;20451;-61
2023/09/24 05:21:03;;;;;;;0.55;0.50;;;7.60;99.90;;;;;;5071355;28;20177;-62
2023/09/24 05:23:29;;;;;;;0.30;0.30;;;7.60;99.90;;;;;;5071455;28;20189;-64
2023/09/24 05:25:54;;;;;;;1.37;0.77;;;7.50;99.90;;;;;;5070763;28;20169;-62
2023/09/24 05:28:20;;;;;;;0.40;0.40;;;7.60;99.90;;;;;;5071319;28;20193;-62
2023/09/24 05:30:57;;;;;;;0.30;0.30;;;7.60;99.90;;;;;;5071436;28;20265;-62
2023/09/24 05:33:22;;;;;;;1.33;0.55;;;7.70;99.90;;;;;;5071408;28;20673;-61
2023/09/24 05:35:51;;;;;;;0.40;0.40;;;7.80;99.90;;;;;;5070614;28;20291;-63
2023/09/24 05:38:17;;;;;;;0.30;0.30;;;7.90;99.90;;;;;;5071498;28;20673;-63
2023/09/24 05:40:43;;;;;;;0.30;0.30;;;7.90;99.90;;;;;;5070856;28;20196;-63
2023/09/24 05:43:09;;;;;;;0.30;0.30;;;7.90;99.90;;;;;;5070305;28;20169;-63
2023/09/24 05:45:35;;;;;;;0.80;0.40;;;7.90;99.90;;;;;;5070349;28;20282;-63
2023/09/24 05:48:00;;;;;;;0.97;0.93;;;7.90;99.90;;;;;;5071049;28;20185;-63
2023/09/24 05:50:26;;;;;;;1.63;0.93;;;7.90;99.90;;;;;;5071123;28;20174;-63
2023/09/24 05:52:52;;;;;;;0.30;0.30;;;7.90;99.90;;;;;;5070694;28;20173;-63
2023/09/24 05:55:18;;;;;;;0.40;0.40;;;7.90;99.90;;;;;;5071153;28;20212;-63
2023/09/24 05:57:43;;;;;;;0.57;0.57;;;7.90;99.90;;;;;;5070678;28;20302;-63
2023/09/24 06:00:10;;;;;;;0.30;0.30;;;8.00;99.90;;;;;;5069489;28;20175;-63
2023/09/24 06:02:36;;;;;;;1.25;0.73;;;8.10;99.90;;;;;;5070256;28;20169;-63
2023/09/24 06:05:02;;;;;;;0.40;0.40;;;8.20;99.90;;;;;;5069797;28;20260;-63
2023/09/24 06:07:28;;;;;;;0.40;0.40;;;8.30;99.90;;;;;;5070072;28;20182;-62
2023/09/24 06:09:56;;;;;;;0.47;0.47;;;8.40;99.90;;;;;;5070364;28;20536;-63
2023/09/24 06:12:24;;;;;;;0.40;0.40;;;8.60;99.90;;;;;;5070162;28;20180;-63
2023/09/24 06:14:49;;;;;;;0.88;0.70;;;8.70;99.90;;;;;;5072846;28;20212;-63
2023/09/24 06:17:15;;;;;;;0.40;0.40;;;8.70;99.90;;;;;;5074212;28;20597;-63
2023/09/24 06:19:41;;;;;;;0.40;0.40;;;8.80;99.90;;;;;;5074497;28;20240;-63
2023/09/24 06:22:06;;;;;;;1.10;1.10;;;8.80;99.90;;;;;;5074707;28;20420;-63
2023/09/24 06:24:32;;;;;;;0.43;0.43;;;8.80;99.90;;;;;;5074599;28;20271;-63
2023/09/24 06:26:58;;;;;;;0.40;0.40;;;9.00;99.90;;;;;;5074103;28;20267;-63
2023/09/24 06:29:23;;;;;;;0.40;0.40;;;9.00;99.90;;;;;;5074465;28;20174;-63
2023/09/24 06:31:50;;;;;;;1.33;1.23;;;9.10;99.90;;;;;;5074328;28;20635;-62
2023/09/24 06:34:16;;;;;;;0.63;0.63;;;9.10;99.90;;;;;;5056461;28;20169;-63
2023/09/24 06:36:41;;;;;;;1.33;0.60;;;9.10;99.90;;;;;;5074075;28;20240;-63
2023/09/24 06:39:09;;;;;;;0.80;0.80;;;9.10;99.90;;;;;;5074169;28;20204;-63
2023/09/24 06:41:35;;;;;;;0.70;0.70;;;9.40;99.90;;;;;;5074335;28;20177;-63
2023/09/24 06:44:01;;;;;;;1.23;1.13;;;9.70;99.90;;;;;;5074205;28;20257;-63
2023/09/24 06:46:26;;;;;;;1.13;0.77;;;10.10;99.90;;;;;;5073738;28;20208;-63
2023/09/24 06:48:52;;;;;;;0.67;0.67;;;10.70;99.90;;;;;;5074045;28;20535;-64
2023/09/24 06:51:17;;;;;;;1.70;1.13;;;11.10;99.90;;;;;;5073522;28;20173;-63
2023/09/24 06:53:44;;;;;;;0.80;0.80;;;11.70;99.90;;;;;;5073933;28;20615;-63
2023/09/24 06:56:10;;;;;;;1.17;0.80;;;12.30;99.90;;;;;;5071654;28;20215;-63
2023/09/24 06:58:36;;;;;;;2.40;1.03;;;13.00;99.60;;;;;;5071954;28;20506;-64
2023/09/24 07:01:03;;;;;;;0.60;0.60;;;13.80;98.60;;;;;;5072125;28;20252;-63
2023/09/24 07:03:29;;;;;;;1.10;1.00;;;14.90;96.90;;;;;;5072188;28;20164;-64
2023/09/24 07:05:55;;;;;;;1.43;1.33;;;16.00;95.10;;;;;;5071792;28;20418;-62
2023/09/24 07:08:21;;;;;;;0.60;0.60;;;16.90;92.70;;;;;;5072168;28;20479;-60
2023/09/24 07:11:21;;;;;;;0.70;0.67;;;17.90;92.10;;;;;;5073291;28;20865;-62
2023/09/24 07:13:46;;;;;;;0.60;0.60;;;19.20;89.30;;;;;;5073102;28;20201;-62
2023/09/24 07:16:13;;;;;;;2.60;0.43;;;20.80;82.50;;;;;;5073470;28;20901;-62
2023/09/24 07:18:39;;;;;;;0.90;0.60;;;22.20;76.40;;;;;;5071511;28;20292;-62
2023/09/24 07:21:05;;;;;;;0.73;0.60;;;23.40;72.40;;;;;;5073878;28;20486;-63
2023/09/24 07:23:31;;;;;;;0.70;0.70;;;24.80;67.70;;;;;;5073559;28;20166;-63
2023/09/24 07:25:56;;;;;;;0.70;0.60;;;26.10;59.20;;;;;;5072313;28;20415;-63
2023/09/24 07:28:24;;;;;;;0.50;0.50;;;26.30;54.60;;;;;;5073266;28;20205;-63
2023/09/24 07:30:53;;;;;;;0.93;0.60;;;25.40;54.10;;;;;;5073220;28;20181;-63
2023/09/24 07:33:23;;;;;;;0.80;0.77;;;24.40;55.50;;;;;;5073599;28;20750;-62
2023/09/24 07:35:49;;;;;;;0.40;0.40;;;24.10;58.50;;;;;;5072777;28;20525;-63
2023/09/24 07:38:15;;;;;;;0.70;0.60;;;22.90;57.30;;;;;;5072951;28;20550;-63
2023/09/24 07:40:40;;;;;;;0.40;0.40;;;22.50;57.50;;;;;;5071882;28;20199;-64
2023/09/24 07:43:09;;;;;;;2.40;0.40;;;22.50;61.70;;;;;;5072772;28;20416;-64
2023/09/24 07:45:36;;;;;;;0.73;0.60;;;22.80;58.70;;;;;;5071643;28;20170;-63
2023/09/24 07:48:02;;;;;;;1.10;0.87;;;23.90;57.70;;;;;;5072492;28;20432;-63
2023/09/24 07:50:28;;;;;;;0.60;0.50;;;25.10;55.40;;;;;;5072994;28;20790;-63
2023/09/24 07:52:55;;;;;;;0.60;0.60;;;26.10;52.60;;;;;;5072342;28;20412;-63
2023/09/24 07:55:21;;;;;;;0.80;0.70;;;26.70;50.20;;;;;;5072713;28;20186;-63
2023/09/24 07:57:47;;;;;;;1.07;0.53;;;26.80;49.00;;;;;;5072296;28;20455;-63
2023/09/24 08:00:13;;;;;;;0.60;0.60;;;26.60;48.60;;;;;;5105913;23;21021;-59
2023/09/24 08:02:39;;;;;;;0.60;0.50;;;26.80;47.40;;;;;;5092586;28;20173;-59
2023/09/24 08:05:05;;;;;;;1.23;0.50;;;27.30;48.80;;;;;;5092541;28;20406;-59
2023/09/24 08:07:32;;;;;;;1.03;0.60;;;27.30;46.20;;;;;;5074084;28;20177;-59
2023/09/24 08:09:59;;;;;;;1.20;0.60;;;27.30;45.90;;;;;;5092525;28;20518;-59
2023/09/24 08:12:24;;;;;;;0.60;0.60;;;27.00;45.30;;;;;;5092531;28;20452;-61
2023/09/24 08:14:50;;;;;;;0.67;0.57;;;27.20;47.40;;;;;;5092364;28;20403;-59
2023/09/24 08:17:16;;;;;;;0.50;0.50;;;27.80;46.40;;;;;;5092455;28;20274;-59
2023/09/24 08:19:41;;;;;;;1.37;0.40;;;27.70;44.40;;;;;;5092236;28;20541;-59
2023/09/24 08:22:07;;;;;;;0.70;0.63;;;27.20;45.00;;;;;;5092330;28;20256;-59
2023/09/24 08:24:33;;;;;;;2.97;0.70;;;27.20;45.20;;;;;;5091996;28;20168;-59
2023/09/24 08:26:58;;;;;;;0.40;0.40;;;27.30;45.40;;;;;;5091921;28;20165;-59
2023/09/24 08:29:24;;;;;;;0.50;0.40;;;28.00;44.10;;;;;;5091995;28;20192;-59
2023/09/24 08:31:50;;;;;;;0.50;0.50;;;28.40;43.70;;;;;;5092044;28;20191;-60
2023/09/24 08:34:15;;;;;;;0.50;0.50;;;29.40;42.40;;;;;;5092302;28;20187;-59
2023/09/24 08:36:41;;;;;;;0.50;0.50;;;29.40;42.30;;;;;;5091733;28;20406;-59
2023/09/24 08:39:08;;;;;;;0.50;0.50;;;29.80;40.40;;;;;;5091932;28;20208;-59
2023/09/24 08:41:41;;;;;;;0.67;0.50;;;28.60;41.70;;;;;;5092149;28;20239;-59
2023/09/24 08:44:13;;;;;;;0.77;0.77;;;27.70;42.70;;;;;;5091792;28;20395;-59
2023/09/24 08:46:40;;;;;;;1.27;0.60;;;27.80;41.70;;;;;;5091495;28;20409;-59
2023/09/24 08:49:07;;;;;;;0.50;0.50;;;27.40;42.60;;;;;;5091581;28;20488;-59
2023/09/24 08:51:33;;;;;;;0.97;0.70;;;27.90;41.80;;;;;;5091174;28;20950;-58
2023/09/24 08:54:00;;;;;;;0.80;0.50;;;27.10;43.10;;;;;;5073011;28;20575;-59
2023/09/24 08:56:26;;;;;;;0.60;0.60;;;27.30;42.60;;;;;;5091460;28;20852;-59
2023/09/24 08:58:53;;;;;;;0.50;0.50;;;28.10;44.50;;;;;;5091274;28;20498;-59
2023/09/24 09:01:18;;;;;;;1.63;0.90;;;29.10;42.60;;;;;;5090859;28;20184;-59
2023/09/24 09:03:44;;;;;;;0.30;0.30;;;29.50;40.30;;;;;;5091699;28;20411;-59
2023/09/24 09:06:12;;;;;;;0.77;0.50;;;28.80;39.10;;;;;;5090890;28;20220;-60
2023/09/24 09:08:51;;;;;;;0.50;0.50;;;28.60;40.50;;;;;;5091168;28;20812;-59
2023/09/24 09:11:19;;;;;;;1.33;0.70;;;28.80;40.50;;;;;;5091588;28;20466;-59
2023/09/24 09:13:48;;;;;;;0.50;0.43;;;29.10;40.60;;;;;;5091450;28;20967;-59
2023/09/24 09:16:16;;;;;;;0.50;0.50;;;29.50;41.30;;;;;;5091264;28;20403;-59
2023/09/24 09:18:42;;;;;;;0.57;0.57;;;29.10;40.50;;;;;;5091467;28;20459;-59
2023/09/24 09:21:08;;;;;;;1.13;0.50;;;28.50;40.40;;;;;;5090250;28;20846;-59
2023/09/24 09:23:36;;;;;;;0.50;0.50;;;29.00;40.80;;;;;;5091649;28;20434;-59
2023/09/24 09:26:03;;;;;;;1.70;0.67;;;29.40;39.50;;;;;;5090906;28;20778;-59
2023/09/24 09:28:31;;;;;;;0.67;0.50;;;29.10;40.80;;;;;;5089570;28;20411;-59
2023/09/24 09:31:00;;;;;;;0.50;0.40;;;29.20;40.70;;;;;;5083953;28;20416;-59
2023/09/24 09:33:27;;;;;;;1.07;1.07;;;28.40;40.20;;;;;;5071621;28;20462;-59
2023/09/24 09:35:54;;;;;;;0.80;0.60;;;27.20;41.40;;;;;;5079059;28;20425;-59
2023/09/24 09:38:21;;;;;;;0.70;0.60;;;26.70;43.90;;;;;;5089307;28;20454;-60
2023/09/24 09:40:51;;;;;;;0.40;0.40;;;27.40;43.90;;;;;;5090959;28;20753;-60
2023/09/24 09:43:25;;;;;;;0.60;0.50;;;27.90;41.20;;;;;;5091262;28;20407;-60
2023/09/24 09:45:53;;;;;;;0.40;0.40;;;28.00;41.30;;;;;;5090676;28;20407;-60
2023/09/24 09:48:29;;;;;;;0.83;0.83;;;28.50;39.00;;;;;;5091200;28;20410;-60
2023/09/24 09:51:01;;;;;;;0.50;0.50;;;28.00;40.00;;;;;;5095220;28;20415;-60
2023/09/24 09:53:34;;;;;;;0.70;0.53;;;27.20;41.60;;;;;;5095336;28;20575;-60
2023/09/24 09:56:07;;;;;;;0.40;0.40;;;26.50;42.00;;;;;;5076093;28;20928;-60
2023/09/24 09:58:38;;;;;;;0.60;0.40;;;26.10;42.70;;;;;;5094839;28;20975;-60
2023/09/24 10:01:06;;;;;;;0.90;0.70;;;25.80;44.10;;;;;;5094434;28;20742;-59
2023/09/24 10:03:37;;;;;;;0.37;0.37;;;26.10;44.30;;;;;;5086594;28;20406;-59
2023/09/24 10:06:05;;;;;;;0.57;0.57;;;26.30;42.60;;;;;;5094411;28;20813;-59
2023/09/24 10:08:34;;;;;;;3.20;0.60;;;25.90;42.20;;;;;;5094710;28;20414;-59
2023/09/24 10:11:01;;;;;;;0.67;0.67;;;25.30;44.50;;;;;;5094784;28;20413;-60
2023/09/24 10:13:46;;;;;;;0.60;0.50;;;25.10;45.90;;;;;;5076792;28;20810;-60
2023/09/24 10:16:37;;;;;;;0.47;0.40;;;25.30;45.60;;;;;;5094393;28;20407;-59
2023/09/24 10:19:11;;;;;;;0.60;0.60;;;25.40;46.70;;;;;;5094790;28;20458;-58
2023/09/24 10:21:44;;;;;;;0.83;0.40;;;25.70;44.70;;;;;;5094824;28;20409;-58
2023/09/24 10:24:13;;;;;;;0.97;0.60;;;25.70;45.40;;;;;;5094792;28;20543;-59
2023/09/24 10:27:03;;;;;;;0.50;0.50;;;25.30;45.40;;;;;;5094209;28;20399;-59
2023/09/24 10:29:51;;;;;;;1.13;0.60;;;24.30;45.50;;;;;;5076312;28;20442;-59
2023/09/24 10:32:24;;;;;;;3.23;0.70;;;22.10;47.70;;;;;;5094605;28;20406;-59
2023/09/24 10:37:22;;;;;;;0.40;0.40;;;20.30;51.90;;;;;;5094023;28;20409;-59
2023/09/24 10:42:26;;;;;;;1.37;0.77;;;20.50;51.80;;;;;;5093650;28;20491;-59
2023/09/24 10:45:07;;;;;;;0.60;0.60;;;20.20;53.10;;;;;;5092146;28;20432;-59
2023/09/24 10:47:36;;;;;;;0.40;0.40;;;20.30;52.80;;;;;;5073774;28;20468;-59
2023/09/24 10:50:06;;;;;;;0.57;0.50;;;20.90;52.60;;;;;;5092730;28;20860;-59
2023/09/24 10:53:01;;;;;;;0.40;0.40;;;21.20;49.70;;;;;;5092838;28;20405;-59
2023/09/24 10:55:27;;;;;;;0.50;0.50;;;21.20;52.10;;;;;;5093606;28;20851;-59
2023/09/24 10:57:53;;;;;;;0.97;0.97;;;21.10;50.40;;;;;;5093634;28;20415;-58
2023/09/24 11:00:21;;;;;;;0.50;0.40;;;21.30;51.80;;;;;;5092709;28;20448;-59
2023/09/24 11:03:01;;;;;;;0.50;0.50;;;21.70;53.50;;;;;;5093781;28;20439;-59
2023/09/24 11:05:28;;;;;;;1.70;0.83;;;21.70;50.40;;;;;;5093640;28;20440;-59
2023/09/24 11:07:55;;;;;;;0.30;0.30;;;21.80;53.10;;;;;;5093666;28;20492;-59
2023/09/24 11:10:23;;;;;;;1.00;0.80;;;22.00;54.00;;;;;;5093608;28;20958;-59
2023/09/24 11:12:53;;;;;;;0.60;0.60;;;21.80;49.10;;;;;;5092990;28;20408;-59
2023/09/24 11:15:20;;;;;;;1.37;0.70;;;21.40;47.90;;;;;;5093561;28;20451;-59
2023/09/24 11:17:46;;;;;;;0.60;0.60;;;21.00;48.90;;;;;;5093066;28;20404;-59
2023/09/24 11:20:13;;;;;;;0.80;0.70;;;20.90;48.80;;;;;;5093263;28;20451;-59
2023/09/24 11:22:39;;;;;;;0.60;0.60;;;20.70;49.50;;;;;;5093232;28;20437;-59
2023/09/24 11:25:09;;;;;;;1.47;0.70;;;20.80;50.20;;;;;;5093105;28;20457;-59
2023/09/24 11:27:51;;;;;;;0.80;0.80;;;20.60;50.60;;;;;;5093541;28;20881;-59
2023/09/24 11:30:21;;;;;;;1.03;0.67;;;20.40;51.60;;;;;;5093233;28;21193;-58
2023/09/24 11:32:52;;;;;;;2.43;0.50;;;20.40;54.50;;;;;;5093851;28;20799;-59
2023/09/24 11:35:22;;;;;;;1.37;0.80;;;20.30;52.70;;;;;;5092633;28;20391;-58
2023/09/24 11:37:48;;;;;;;0.50;0.40;;;20.00;52.60;;;;;;5093230;28;20414;-59
2023/09/24 11:40:41;;;;;;;0.77;0.50;;;19.80;52.70;;;;;;5092887;28;20942;-59
2023/09/24 11:43:15;;;;;;;0.50;0.50;;;19.70;52.70;;;;;;5071432;28;20216;-59
2023/09/24 11:45:49;;;;;;;0.40;0.40;;;19.70;56.80;;;;;;5092731;28;20407;-59
2023/09/24 11:48:26;;;;;;;0.60;0.50;;;20.00;53.40;;;;;;5092956;28;20411;-59
2023/09/24 11:51:02;;;;;;;2.43;0.73;;;20.20;52.10;;;;;;5092515;28;20501;-58
2023/09/24 11:53:28;;;;;;;2.03;0.70;;;20.10;53.70;;;;;;5092245;28;20433;-58
2023/09/24 11:55:58;;;;;;;0.50;0.47;;;19.70;52.00;;;;;;5091871;28;20418;-59
2023/09/24 11:58:28;;;;;;;0.50;0.50;;;19.20;51.90;;;;;;5092415;28;20191;-58
2023/09/24 12:00:55;;;;;;;0.40;0.40;;;18.70;52.30;;;;;;5092868;28;20404;-58
2023/09/24 12:03:21;;;;;;;0.90;0.70;;;18.00;55.40;;;;;;5092721;28;20491;-59
2023/09/24 12:05:47;;;;;;;0.40;0.40;;;17.60;55.90;;;;;;5092372;28;20945;-59
2023/09/24 12:08:13;;;;;;;0.40;0.40;;;17.70;55.60;;;;;;5092470;28;20178;-59
2023/09/24 12:10:40;;;;;;;0.50;0.50;;;18.00;56.40;;;;;;5092401;28;20429;-59
2023/09/24 12:13:10;;;;;;;0.60;0.60;;;18.50;56.10;;;;;;5092523;28;20193;-59
2023/09/24 12:15:36;;;;;;;1.33;0.70;;;18.80;55.00;;;;;;5092263;28;20436;-59
2023/09/24 12:18:04;;;;;;;4.00;0.60;;;18.80;56.60;;;;;;5092348;28;20498;-59
2023/09/24 12:20:31;;;;;;;0.90;0.90;;;18.70;54.30;;;;;;5092356;28;20810;-58
2023/09/24 12:22:59;;;;;;;0.40;0.40;;;18.50;57.80;;;;;;5092336;28;20908;-59
2023/09/24 12:25:25;;;;;;;0.50;0.43;;;18.20;55.70;;;;;;5092661;28;20861;-59
2023/09/24 12:27:51;;;;;;;0.40;0.40;;;17.60;53.30;;;;;;5092192;28;20440;-58
2023/09/24 12:30:17;;;;;;;1.57;0.50;;;17.20;56.70;;;;;;5092412;28;20199;-58
2023/09/24 12:32:42;;;;;;;1.13;0.43;;;17.00;56.60;;;;;;5092268;28;20418;-58
2023/09/24 12:35:11;;;;;;;0.50;0.50;;;16.60;57.20;;;;;;5092254;28;20230;-58
2023/09/24 12:37:38;;;;;;;1.53;0.57;;;16.70;57.80;;;;;;5091899;28;20177;-58
2023/09/24 12:40:06;;;;;;;0.70;0.40;;;16.90;62.60;;;;;;5091813;28;20849;-59
2023/09/24 12:42:36;;;;;;;0.37;0.37;;;16.90;64.70;;;;;;5092165;28;20499;-59
2023/09/24 12:45:04;;;;;;;0.63;0.63;;;17.20;58.60;;;;;;5092157;28;20440;-59
2023/09/24 12:47:32;;;;;;;0.50;0.50;;;17.50;56.60;;;;;;5091528;28;20403;-59
2023/09/24 12:49:59;;;;;;;0.80;0.80;;;17.90;56.00;;;;;;5091949;28;20510;-59
2023/09/24 12:52:30;;;;;;;1.60;0.50;;;18.20;55.60;;;;;;5091716;28;20410;-59
2023/09/24 12:54:55;;;;;;;1.20;1.13;;;18.30;56.70;;;;;;5091947;28;20823;-59
2023/09/24 12:57:21;;;;;;;2.40;0.70;;;18.40;56.60;;;;;;5091126;28;20469;-58
2023/09/24 12:59:47;;;;;;;0.70;0.70;;;18.50;57.50;;;;;;5091450;28;20223;-59